createdAt,value
2023-01-07T00:00:08.323Z,0.00
2023-01-07T00:01:07.572Z,0.00
2023-01-07T00:02:07.486Z,0.00
2023-01-07T00:03:08.076Z,0.00
2023-01-07T00:04:07.544Z,0.00
2023-01-07T00:05:07.601Z,0.00
2023-01-07T00:06:07.464Z,0.00
2023-01-07T00:07:07.704Z,0.00
2023-01-07T00:08:07.408Z,0.00
2023-01-07T00:09:07.411Z,0.00
2023-01-07T00:10:08.240Z,0.00
2023-01-07T00:11:07.371Z,0.00
2023-01-07T00:12:07.516Z,0.00
2023-01-07T00:13:07.336Z,0.00
2023-01-07T00:14:07.442Z,0.00
2023-01-07T00:15:07.429Z,0.00
2023-01-07T00:16:07.465Z,0.00
2023-01-07T00:17:07.406Z,0.00
2023-01-07T00:18:07.449Z,0.00
2023-01-07T00:19:07.270Z,0.00
2023-01-07T00:20:07.399Z,0.00
2023-01-07T00:21:07.415Z,0.00
2023-01-07T00:22:07.261Z,0.00
2023-01-07T00:23:07.379Z,0.00
2023-01-07T00:24:07.264Z,0.00
2023-01-07T00:25:07.197Z,0.00
2023-01-07T00:26:07.173Z,0.00
2023-01-07T00:27:07.435Z,0.00
2023-01-07T00:28:07.149Z,0.00
2023-01-07T00:29:07.464Z,0.00
2023-01-07T00:30:07.429Z,0.00
2023-01-07T00:31:07.438Z,0.00
2023-01-07T00:32:08.068Z,0.00
2023-01-07T00:33:07.077Z,0.00
2023-01-07T00:34:07.427Z,0.00
2023-01-07T00:35:07.047Z,0.00
2023-01-07T00:36:07.040Z,0.00
2023-01-07T00:37:07.070Z,0.00
2023-01-07T00:38:07.016Z,0.00
2023-01-07T00:39:06.999Z,0.00
2023-01-07T00:40:07.433Z,0.00
2023-01-07T00:41:06.992Z,0.00
2023-01-07T00:42:07.005Z,0.00
2023-01-07T00:43:06.940Z,0.00
2023-01-07T00:44:06.953Z,0.00
2023-01-07T00:45:07.101Z,0.00
2023-01-07T00:46:07.029Z,0.00
2023-01-07T00:47:06.921Z,0.00
2023-01-07T00:48:06.885Z,0.00
2023-01-07T00:49:06.867Z,0.00
2023-01-07T00:50:06.860Z,0.00
2023-01-07T00:51:06.842Z,0.00
2023-01-07T00:52:06.866Z,0.00
2023-01-07T00:53:06.826Z,0.00
2023-01-07T00:54:06.808Z,0.00
2023-01-07T00:55:06.776Z,0.00
2023-01-07T00:56:06.794Z,0.00
2023-01-07T00:57:06.799Z,0.00
2023-01-07T00:58:06.748Z,0.00
2023-01-07T00:59:06.732Z,0.00
2023-01-07T01:00:06.734Z,0.00
2023-01-07T01:01:07.483Z,0.00
2023-01-07T01:02:07.588Z,0.00
2023-01-07T01:03:06.676Z,0.00
2023-01-07T01:04:06.670Z,0.00
2023-01-07T01:05:06.931Z,0.00
2023-01-07T01:06:06.635Z,0.00
2023-01-07T01:07:06.645Z,0.00
2023-01-07T01:08:06.665Z,0.00
2023-01-07T01:09:06.617Z,0.00
2023-01-07T01:10:06.586Z,0.00
2023-01-07T01:11:06.565Z,0.00
2023-01-07T01:12:06.587Z,0.00
2023-01-07T01:13:06.589Z,0.00
2023-01-07T01:14:06.558Z,0.00
2023-01-07T01:15:06.531Z,0.00
2023-01-07T01:16:06.851Z,0.00
2023-01-07T01:17:06.892Z,0.00
2023-01-07T01:18:06.505Z,0.00
2023-01-07T01:19:06.524Z,0.00
2023-01-07T01:20:06.466Z,0.00
2023-01-07T01:21:06.445Z,0.00
2023-01-07T01:22:06.454Z,0.00
2023-01-07T01:23:06.449Z,0.00
2023-01-07T01:24:06.420Z,0.00
2023-01-07T01:25:06.408Z,0.00
2023-01-07T01:26:06.376Z,0.00
2023-01-07T01:27:06.367Z,0.00
2023-01-07T01:28:06.425Z,0.00
2023-01-07T01:29:06.376Z,0.00
2023-01-07T01:30:06.341Z,0.00
2023-01-07T01:31:06.337Z,0.00
2023-01-07T01:32:07.159Z,0.00
2023-01-07T01:33:07.060Z,0.00
2023-01-07T01:34:06.275Z,0.00
2023-01-07T01:35:06.275Z,0.00
2023-01-07T01:36:06.283Z,0.00
2023-01-07T01:37:06.224Z,0.00
2023-01-07T01:38:06.336Z,0.00
2023-01-07T01:39:06.215Z,0.00
2023-01-07T01:40:06.193Z,0.00
2023-01-07T01:41:06.189Z,0.00
2023-01-07T01:42:06.177Z,0.00
2023-01-07T01:43:06.181Z,0.00
2023-01-07T01:44:06.143Z,0.00
2023-01-07T01:45:06.142Z,0.00
2023-01-07T01:46:06.107Z,0.00
2023-01-07T01:47:06.447Z,0.00
2023-01-07T01:48:06.542Z,0.00
2023-01-07T01:49:06.095Z,0.00
2023-01-07T01:50:06.531Z,0.00
2023-01-07T01:51:06.043Z,0.00
2023-01-07T01:52:06.047Z,0.00
2023-01-07T01:53:06.041Z,0.00
2023-01-07T01:54:06.031Z,0.00
2023-01-07T01:55:06.619Z,0.00
2023-01-07T01:56:06.001Z,0.00
2023-01-07T01:57:06.015Z,0.00
2023-01-07T01:58:05.994Z,0.00
2023-01-07T01:59:05.955Z,0.00
2023-01-07T02:00:05.949Z,0.00
2023-01-07T02:01:06.062Z,0.00
2023-01-07T02:02:06.058Z,0.00
2023-01-07T02:03:06.162Z,0.00
2023-01-07T02:04:05.875Z,0.00
2023-01-07T02:05:05.856Z,0.00
2023-01-07T02:06:06.725Z,0.00
2023-01-07T02:07:05.921Z,0.00
2023-01-07T02:08:06.788Z,0.00
2023-01-07T02:09:05.809Z,0.00
2023-01-07T02:10:05.818Z,0.00
2023-01-07T02:11:05.786Z,0.00
2023-01-07T02:12:05.784Z,0.00
2023-01-07T02:13:05.788Z,0.00
2023-01-07T02:14:05.739Z,0.00
2023-01-07T02:15:05.739Z,0.00
2023-01-07T02:16:05.799Z,0.00
2023-01-07T02:17:05.730Z,0.00
2023-01-07T02:18:06.344Z,0.00
2023-01-07T02:19:06.400Z,0.00
2023-01-07T02:20:05.678Z,0.00
2023-01-07T02:21:05.656Z,0.00
2023-01-07T02:22:05.662Z,0.00
2023-01-07T02:23:05.642Z,0.00
2023-01-07T02:24:05.622Z,0.00
2023-01-07T02:25:05.618Z,0.00
2023-01-07T02:26:05.583Z,0.00
2023-01-07T02:27:05.603Z,0.00
2023-01-07T02:28:05.615Z,0.00
2023-01-07T02:29:05.559Z,0.00
2023-01-07T02:30:05.537Z,0.00
2023-01-07T02:31:05.520Z,0.00
2023-01-07T02:32:05.524Z,0.00
2023-01-07T02:33:05.531Z,0.00
2023-01-07T02:34:06.324Z,0.00
2023-01-07T02:35:05.464Z,0.00
2023-01-07T02:36:05.452Z,0.00
2023-01-07T02:37:05.452Z,0.00
2023-01-07T02:38:05.571Z,0.00
2023-01-07T02:39:05.441Z,0.00
2023-01-07T02:40:05.403Z,0.00
2023-01-07T02:41:05.429Z,0.00
2023-01-07T02:42:05.393Z,0.00
2023-01-07T02:43:05.406Z,0.00
2023-01-07T02:44:05.351Z,0.00
2023-01-07T02:45:05.330Z,0.00
2023-01-07T02:46:05.356Z,0.00
2023-01-07T02:47:05.335Z,0.00
2023-01-07T02:48:05.326Z,0.00
2023-01-07T02:49:06.097Z,0.00
2023-01-07T02:50:05.298Z,0.00
2023-01-07T02:51:05.265Z,0.00
2023-01-07T02:52:06.110Z,0.00
2023-01-07T02:53:05.249Z,0.00
2023-01-07T02:54:05.208Z,0.00
2023-01-07T02:55:05.198Z,0.00
2023-01-07T02:56:05.190Z,0.00
2023-01-07T02:57:05.233Z,0.00
2023-01-07T02:58:05.199Z,0.00
2023-01-07T02:59:05.162Z,0.00
2023-01-07T03:00:05.133Z,0.00
2023-01-07T03:01:05.244Z,0.00
2023-01-07T03:02:05.152Z,0.00
2023-01-07T03:03:05.129Z,0.00
2023-01-07T03:04:05.305Z,0.00
2023-01-07T03:05:05.912Z,0.00
2023-01-07T03:06:05.051Z,0.00
2023-01-07T03:07:05.052Z,0.00
2023-01-07T03:08:05.200Z,0.00
2023-01-07T03:09:05.043Z,0.00
2023-01-07T03:10:05.018Z,0.00
2023-01-07T03:11:05.000Z,0.00
2023-01-07T03:12:04.990Z,0.00
2023-01-07T03:13:04.992Z,0.00
2023-01-07T03:14:04.952Z,0.00
2023-01-07T03:15:04.943Z,0.00
2023-01-07T03:16:05.741Z,0.00
2023-01-07T03:17:04.928Z,0.00
2023-01-07T03:18:05.002Z,0.00
2023-01-07T03:19:05.311Z,0.00
2023-01-07T03:20:05.668Z,0.00
2023-01-07T03:21:04.873Z,0.00
2023-01-07T03:22:04.861Z,0.00
2023-01-07T03:23:04.870Z,0.00
2023-01-07T03:24:04.817Z,0.00
2023-01-07T03:25:04.811Z,0.00
2023-01-07T03:26:04.806Z,0.00
2023-01-07T03:27:04.787Z,0.00
2023-01-07T03:28:04.791Z,0.00
2023-01-07T03:29:04.756Z,0.00
2023-01-07T03:30:05.038Z,0.00
2023-01-07T03:31:04.737Z,0.00
2023-01-07T03:32:04.823Z,0.00
2023-01-07T03:33:04.706Z,0.00
2023-01-07T03:34:04.712Z,0.00
2023-01-07T03:35:04.775Z,0.00
2023-01-07T03:36:04.829Z,0.00
2023-01-07T03:37:04.648Z,0.00
2023-01-07T03:38:04.630Z,0.00
2023-01-07T03:39:04.696Z,0.00
2023-01-07T03:40:04.609Z,0.00
2023-01-07T03:41:04.599Z,0.00
2023-01-07T03:42:04.577Z,0.00
2023-01-07T03:43:04.585Z,0.00
2023-01-07T03:44:04.577Z,0.00
2023-01-07T03:45:04.557Z,0.00
2023-01-07T03:46:04.584Z,0.00
2023-01-07T03:47:04.537Z,0.00
2023-01-07T03:48:04.507Z,0.00
2023-01-07T03:49:04.528Z,0.00
2023-01-07T03:50:05.431Z,0.00
2023-01-07T03:51:05.661Z,0.00
2023-01-07T03:52:04.463Z,0.00
2023-01-07T03:53:04.461Z,0.00
2023-01-07T03:54:04.448Z,0.00
2023-01-07T03:55:04.419Z,0.00
2023-01-07T03:56:04.425Z,0.00
2023-01-07T03:57:04.394Z,0.00
2023-01-07T03:58:04.381Z,0.00
2023-01-07T03:59:04.401Z,0.00
2023-01-07T04:00:04.352Z,0.00
2023-01-07T04:01:04.474Z,0.00
2023-01-07T04:02:04.978Z,0.00
2023-01-07T04:03:04.306Z,0.00
2023-01-07T04:04:04.398Z,0.00
2023-01-07T04:05:04.284Z,0.00
2023-01-07T04:06:04.268Z,0.00
2023-01-07T04:07:04.345Z,0.00
2023-01-07T04:08:04.236Z,0.00
2023-01-07T04:09:04.256Z,0.00
2023-01-07T04:10:04.208Z,0.00
2023-01-07T04:11:04.196Z,0.00
2023-01-07T04:12:04.191Z,0.00
2023-01-07T04:13:04.186Z,0.00
2023-01-07T04:14:04.188Z,0.00
2023-01-07T04:15:04.151Z,0.00
2023-01-07T04:16:04.152Z,0.00
2023-01-07T04:17:04.126Z,0.00
2023-01-07T04:18:04.114Z,0.00
2023-01-07T04:19:04.117Z,0.00
2023-01-07T04:20:04.134Z,0.00
2023-01-07T04:21:04.060Z,0.00
2023-01-07T04:22:04.219Z,0.00
2023-01-07T04:23:04.054Z,0.00
2023-01-07T04:24:04.079Z,0.00
2023-01-07T04:25:04.067Z,0.00
2023-01-07T04:26:04.005Z,0.00
2023-01-07T04:27:03.992Z,0.00
2023-01-07T04:28:03.995Z,0.00
2023-01-07T04:29:03.994Z,0.00
2023-01-07T04:30:03.969Z,0.00
2023-01-07T04:31:03.990Z,0.00
2023-01-07T04:32:03.946Z,0.00
2023-01-07T04:33:03.899Z,0.00
2023-01-07T04:34:03.942Z,0.00
2023-01-07T04:35:03.893Z,0.00
2023-01-07T04:36:04.220Z,0.00
2023-01-07T04:37:03.912Z,0.00
2023-01-07T04:38:04.065Z,0.00
2023-01-07T04:39:03.868Z,0.00
2023-01-07T04:40:03.815Z,0.00
2023-01-07T04:41:03.803Z,0.00
2023-01-07T04:42:03.816Z,0.00
2023-01-07T04:43:03.777Z,0.00
2023-01-07T04:44:03.800Z,0.00
2023-01-07T04:45:03.755Z,0.00
2023-01-07T04:46:03.892Z,0.00
2023-01-07T04:47:03.737Z,0.00
2023-01-07T04:48:04.257Z,0.00
2023-01-07T04:49:03.737Z,0.00
2023-01-07T04:50:03.698Z,0.00
2023-01-07T04:51:03.662Z,0.00
2023-01-07T04:52:03.662Z,0.00
2023-01-07T04:53:04.022Z,0.00
2023-01-07T04:54:03.658Z,0.00
2023-01-07T04:55:03.613Z,0.00
2023-01-07T04:56:03.630Z,0.00
2023-01-07T04:57:03.604Z,0.00
2023-01-07T04:58:03.601Z,0.00
2023-01-07T04:59:03.603Z,0.00
2023-01-07T05:00:03.552Z,0.00
2023-01-07T05:01:03.648Z,0.00
2023-01-07T05:02:03.647Z,0.00
2023-01-07T05:03:03.662Z,0.00
2023-01-07T05:04:03.594Z,0.00
2023-01-07T05:05:03.520Z,0.00
2023-01-07T05:06:03.471Z,0.00
2023-01-07T05:07:04.002Z,0.00
2023-01-07T05:08:03.459Z,0.00
2023-01-07T05:09:03.474Z,0.00
2023-01-07T05:10:03.425Z,0.00
2023-01-07T05:11:03.413Z,0.00
2023-01-07T05:12:03.429Z,0.00
2023-01-07T05:13:05.042Z,0.00
2023-01-07T05:14:03.427Z,0.00
2023-01-07T05:15:03.350Z,0.00
2023-01-07T05:16:03.351Z,0.00
2023-01-07T05:17:03.421Z,0.00
2023-01-07T05:18:03.340Z,0.00
2023-01-07T05:19:04.041Z,0.00
2023-01-07T05:20:03.303Z,0.00
2023-01-07T05:21:03.285Z,0.00
2023-01-07T05:22:03.296Z,0.00
2023-01-07T05:23:03.260Z,0.00
2023-01-07T05:24:03.304Z,0.00
2023-01-07T05:25:03.254Z,0.00
2023-01-07T05:26:03.220Z,0.00
2023-01-07T05:27:03.216Z,0.00
2023-01-07T05:28:03.191Z,0.00
2023-01-07T05:29:03.199Z,0.00
2023-01-07T05:30:03.189Z,0.00
2023-01-07T05:31:03.234Z,0.00
2023-01-07T05:32:03.138Z,0.00
2023-01-07T05:33:03.135Z,0.00
2023-01-07T05:34:03.432Z,0.00
2023-01-07T05:35:03.132Z,0.00
2023-01-07T05:36:03.080Z,0.00
2023-01-07T05:37:03.088Z,0.00
2023-01-07T05:38:03.740Z,0.00
2023-01-07T05:39:03.792Z,0.00
2023-01-07T05:40:03.047Z,0.00
2023-01-07T05:41:03.067Z,0.00
2023-01-07T05:42:03.041Z,0.00
2023-01-07T05:43:03.022Z,0.00
2023-01-07T05:44:03.008Z,0.00
2023-01-07T05:45:03.469Z,0.00
2023-01-07T05:46:03.021Z,0.00
2023-01-07T05:47:02.939Z,0.00
2023-01-07T05:48:02.941Z,0.00
2023-01-07T05:49:02.945Z,0.00
2023-01-07T05:50:02.900Z,0.00
2023-01-07T05:51:02.895Z,0.00
2023-01-07T05:52:02.901Z,0.00
2023-01-07T05:53:03.607Z,0.00
2023-01-07T05:54:03.766Z,0.00
2023-01-07T05:55:02.829Z,0.00
2023-01-07T05:56:03.591Z,0.00
2023-01-07T05:57:02.814Z,0.00
2023-01-07T05:58:02.794Z,0.00
2023-01-07T05:59:02.827Z,0.00
2023-01-07T06:00:02.793Z,0.00
2023-01-07T06:01:02.811Z,0.00
2023-01-07T06:02:02.749Z,0.00
2023-01-07T06:03:02.746Z,0.00
2023-01-07T06:04:02.744Z,0.00
2023-01-07T06:05:02.780Z,0.00
2023-01-07T06:06:02.701Z,0.00
2023-01-07T06:07:02.686Z,0.00
2023-01-07T06:08:02.662Z,0.00
2023-01-07T06:09:02.698Z,0.00
2023-01-07T06:10:03.497Z,0.00
2023-01-07T06:11:02.666Z,0.00
2023-01-07T06:12:02.637Z,0.00
2023-01-07T06:13:03.618Z,0.00
2023-01-07T06:14:02.607Z,0.00
2023-01-07T06:15:02.589Z,0.00
2023-01-07T06:16:02.579Z,0.00
2023-01-07T06:17:02.546Z,0.00
2023-01-07T06:18:02.780Z,0.00
2023-01-07T06:19:02.549Z,0.00
2023-01-07T06:20:02.508Z,0.00
2023-01-07T06:21:02.581Z,0.00
2023-01-07T06:22:02.486Z,0.00
2023-01-07T06:23:02.489Z,0.00
2023-01-07T06:24:02.842Z,0.00
2023-01-07T06:25:02.446Z,0.00
2023-01-07T06:26:02.448Z,0.00
2023-01-07T06:27:02.435Z,0.00
2023-01-07T06:28:02.407Z,0.00
2023-01-07T06:29:02.426Z,0.00
2023-01-07T06:30:02.544Z,0.00
2023-01-07T06:31:02.403Z,0.00
2023-01-07T06:32:02.358Z,0.00
2023-01-07T06:33:02.335Z,0.00
2023-01-07T06:34:02.357Z,0.00
2023-01-07T06:35:02.317Z,0.00
2023-01-07T06:36:02.305Z,0.00
2023-01-07T06:37:02.294Z,0.00
2023-01-07T06:38:02.293Z,0.00
2023-01-07T06:39:02.292Z,0.00
2023-01-07T06:40:02.883Z,0.00
2023-01-07T06:41:03.132Z,0.00
2023-01-07T06:42:02.274Z,0.00
2023-01-07T06:43:02.208Z,0.00
2023-01-07T06:44:02.239Z,0.00
2023-01-07T06:45:02.189Z,0.00
2023-01-07T06:46:02.209Z,0.00
2023-01-07T06:47:02.154Z,0.00
2023-01-07T06:48:02.146Z,0.00
2023-01-07T06:49:02.177Z,0.00
2023-01-07T06:50:02.118Z,0.00
2023-01-07T06:51:02.120Z,0.00
2023-01-07T06:52:02.095Z,0.00
2023-01-07T06:53:02.054Z,0.00
2023-01-07T06:54:02.108Z,0.00
2023-01-07T06:55:02.128Z,0.00
2023-01-07T06:56:02.181Z,0.00
2023-01-07T06:57:01.979Z,0.00
2023-01-07T06:58:02.072Z,0.00
2023-01-07T06:59:02.020Z,0.00
2023-01-07T07:00:02.034Z,0.00
2023-01-07T07:01:02.043Z,0.00
2023-01-07T07:02:01.951Z,0.00
2023-01-07T07:03:01.922Z,0.00
2023-01-07T07:04:01.936Z,0.00
2023-01-07T07:05:01.907Z,0.00
2023-01-07T07:06:01.856Z,0.00
2023-01-07T07:07:01.850Z,0.00
2023-01-07T07:08:01.831Z,0.00
2023-01-07T07:09:01.825Z,0.00
2023-01-07T07:10:02.604Z,0.00
2023-01-07T07:11:02.826Z,0.00
2023-01-07T07:12:01.789Z,0.00
2023-01-07T07:13:01.752Z,0.00
2023-01-07T07:14:01.760Z,0.00
2023-01-07T07:15:01.754Z,0.00
2023-01-07T07:16:01.742Z,0.00
2023-01-07T07:17:01.713Z,0.00
2023-01-07T07:18:01.700Z,0.00
2023-01-07T07:19:01.687Z,0.00
2023-01-07T07:20:01.720Z,0.00
2023-01-07T07:21:02.611Z,0.00
2023-01-07T07:22:03.841Z,0.00
2023-01-07T07:23:01.639Z,0.00
2023-01-07T07:24:01.628Z,0.00
2023-01-07T07:25:01.658Z,0.00
2023-01-07T07:26:01.934Z,0.00
2023-01-07T07:27:01.951Z,0.00
2023-01-07T07:28:01.585Z,0.00
2023-01-07T07:29:01.691Z,0.00
2023-01-07T07:30:01.557Z,0.00
2023-01-07T07:31:01.545Z,0.00
2023-01-07T07:32:01.510Z,0.00
2023-01-07T07:33:01.500Z,0.00
2023-01-07T07:34:01.491Z,0.00
2023-01-07T07:35:01.489Z,0.00
2023-01-07T07:36:01.461Z,5.62
2023-01-07T07:37:01.456Z,5.62
2023-01-07T07:38:01.430Z,5.62
2023-01-07T07:39:02.371Z,5.62
2023-01-07T07:40:01.436Z,5.62
2023-01-07T07:41:01.663Z,5.62
2023-01-07T07:42:02.354Z,5.62
2023-01-07T07:43:11.593Z,5.62
2023-01-07T07:44:02.349Z,5.62
2023-01-07T07:45:01.357Z,5.62
2023-01-07T07:46:01.361Z,5.62
2023-01-07T07:47:01.322Z,5.62
2023-01-07T07:48:02.293Z,5.62
2023-01-07T07:49:02.197Z,11.25
2023-01-07T07:50:02.519Z,11.25
2023-01-07T07:51:01.274Z,11.25
2023-01-07T07:52:01.250Z,11.25
2023-01-07T07:53:01.245Z,11.25
2023-01-07T07:54:01.229Z,11.25
2023-01-07T07:55:19.527Z,11.25
2023-01-07T07:56:02.205Z,11.25
2023-01-07T07:57:01.201Z,11.25
2023-01-07T07:58:01.244Z,11.25
2023-01-07T07:59:01.180Z,11.25
2023-01-07T08:00:01.397Z,16.88
2023-01-07T08:01:01.195Z,16.88
2023-01-07T08:02:01.172Z,16.88
2023-01-07T08:03:01.199Z,16.88
2023-01-07T08:04:01.088Z,22.50
2023-01-07T08:05:01.116Z,22.50
2023-01-07T08:06:01.076Z,22.50
2023-01-07T08:07:01.058Z,22.50
2023-01-07T08:08:01.279Z,22.50
2023-01-07T08:09:01.025Z,28.12
2023-01-07T08:10:01.061Z,28.12
2023-01-07T08:11:01.007Z,28.12
2023-01-07T08:12:01.497Z,28.12
2023-01-07T08:13:01.578Z,28.12
2023-01-07T08:14:00.954Z,33.75
2023-01-07T08:15:00.973Z,33.75
2023-01-07T08:16:00.991Z,33.75
2023-01-07T08:17:00.927Z,33.75
2023-01-07T08:18:00.906Z,33.75
2023-01-07T08:19:00.888Z,39.38
2023-01-07T08:20:00.912Z,39.38
2023-01-07T08:21:00.908Z,39.38
2023-01-07T08:22:00.859Z,39.38
2023-01-07T08:23:01.124Z,39.38
2023-01-07T08:24:01.155Z,39.38
2023-01-07T08:25:00.873Z,39.38
2023-01-07T08:26:00.833Z,39.38
2023-01-07T08:27:01.037Z,39.38
2023-01-07T08:28:01.421Z,39.38
2023-01-07T08:29:00.898Z,39.38
2023-01-07T08:30:00.980Z,39.38
2023-01-07T08:31:00.866Z,39.38
2023-01-07T08:32:00.861Z,39.38
2023-01-07T08:33:00.716Z,39.38
2023-01-07T08:34:01.385Z,39.38
2023-01-07T08:35:00.733Z,39.38
2023-01-07T08:36:00.915Z,39.38
2023-01-07T08:37:00.770Z,39.38
2023-01-07T08:38:00.653Z,39.38
2023-01-07T08:39:00.755Z,45.00
2023-01-07T08:40:00.634Z,45.00
2023-01-07T08:41:01.193Z,45.00
2023-01-07T08:42:01.614Z,45.00
2023-01-07T08:43:01.497Z,45.00
2023-01-07T08:44:01.512Z,45.00
2023-01-07T08:45:00.580Z,45.00
2023-01-07T08:46:00.620Z,45.00
2023-01-07T08:47:01.612Z,45.00
2023-01-07T08:48:00.641Z,45.00
2023-01-07T08:49:00.608Z,45.00
2023-01-07T08:50:00.514Z,45.00
2023-01-07T08:51:00.590Z,45.00
2023-01-07T08:52:00.599Z,45.00
2023-01-07T08:53:00.562Z,39.38
2023-01-07T08:54:00.585Z,39.38
2023-01-07T08:55:00.579Z,39.38
2023-01-07T08:56:00.580Z,39.38
2023-01-07T08:57:00.601Z,39.38
2023-01-07T08:58:00.599Z,45.00
2023-01-07T08:59:00.604Z,45.00
2023-01-07T09:00:00.507Z,45.00
2023-01-07T09:01:00.444Z,45.00
2023-01-07T09:02:00.524Z,45.00
2023-01-07T09:03:00.670Z,45.00
2023-01-07T09:04:00.639Z,45.00
2023-01-07T09:05:00.657Z,45.00
2023-01-07T09:06:00.315Z,45.00
2023-01-07T09:07:00.294Z,45.00
2023-01-07T09:08:00.485Z,45.00
2023-01-07T09:09:00.252Z,45.00
2023-01-07T09:10:00.793Z,45.00
2023-01-07T09:11:00.255Z,45.00
2023-01-07T09:12:00.202Z,45.00
2023-01-07T09:13:00.530Z,50.62
2023-01-07T09:14:00.818Z,50.62
2023-01-07T09:15:00.886Z,45.00
2023-01-07T09:16:00.877Z,45.00
2023-01-07T09:17:00.170Z,45.00
2023-01-07T09:18:00.221Z,45.00
2023-01-07T09:19:00.148Z,45.00
2023-01-07T09:20:00.102Z,45.00
2023-01-07T09:21:00.222Z,45.00
2023-01-07T09:22:00.096Z,45.00
2023-01-07T09:23:00.074Z,45.00
2023-01-07T09:24:00.051Z,45.00
2023-01-07T09:25:00.518Z,45.00
2023-01-07T09:26:00.053Z,45.00
2023-01-07T09:27:01.469Z,45.00
2023-01-07T09:28:01.015Z,45.00
2023-01-07T09:29:00.749Z,45.00
2023-01-07T09:30:00.799Z,45.00
2023-01-07T09:31:00.629Z,45.00
2023-01-07T09:31:59.940Z,45.00
2023-01-07T09:32:59.931Z,45.00
2023-01-07T09:33:59.919Z,45.00
2023-01-07T09:35:00.635Z,45.00
2023-01-07T09:36:00.686Z,45.00
2023-01-07T09:36:59.891Z,45.00
2023-01-07T09:37:59.861Z,45.00
2023-01-07T09:38:59.947Z,45.00
2023-01-07T09:39:59.833Z,45.00
2023-01-07T09:41:00.162Z,45.00
2023-01-07T09:41:59.810Z,45.00
2023-01-07T09:42:59.809Z,45.00
2023-01-07T09:44:01.974Z,45.00
2023-01-07T09:45:00.153Z,45.00
2023-01-07T09:45:59.967Z,45.00
2023-01-07T09:46:59.770Z,45.00
2023-01-07T09:47:59.770Z,45.00
2023-01-07T09:48:59.836Z,45.00
2023-01-07T09:49:59.722Z,39.38
2023-01-07T09:50:59.718Z,33.75
2023-01-07T09:51:59.713Z,33.75
2023-01-07T09:52:59.682Z,33.75
2023-01-07T09:53:59.664Z,39.38
2023-01-07T09:54:59.887Z,39.38
2023-01-07T09:56:12.515Z,39.38
2023-01-07T09:57:00.626Z,39.38
2023-01-07T09:58:00.356Z,39.38
2023-01-07T09:58:59.579Z,33.75
2023-01-07T10:00:00.357Z,33.75
2023-01-07T10:00:59.639Z,33.75
2023-01-07T10:01:59.527Z,33.75
2023-01-07T10:02:59.580Z,33.75
2023-01-07T10:03:59.598Z,39.38
2023-01-07T10:04:59.497Z,39.38
2023-01-07T10:05:59.520Z,50.62
2023-01-07T10:06:59.496Z,50.62
2023-01-07T10:08:29.148Z,56.25
2023-01-07T10:09:00.966Z,56.25
2023-01-07T10:09:59.453Z,56.25
2023-01-07T10:11:00.197Z,56.25
2023-01-07T10:11:59.427Z,61.88
2023-01-07T10:12:59.405Z,67.50
2023-01-07T10:13:59.487Z,78.75
2023-01-07T10:15:00.242Z,78.75
2023-01-07T10:15:59.398Z,78.75
2023-01-07T10:16:59.358Z,73.12
2023-01-07T10:17:59.375Z,73.12
2023-01-07T10:18:59.317Z,78.75
2023-01-07T10:19:59.327Z,73.12
2023-01-07T10:20:59.334Z,73.12
2023-01-07T10:21:59.597Z,73.12
2023-01-07T10:22:59.268Z,67.50
2023-01-07T10:23:59.392Z,61.88
2023-01-07T10:24:59.255Z,67.50
2023-01-07T10:25:59.271Z,67.50
2023-01-07T10:26:59.246Z,78.75
2023-01-07T10:27:59.352Z,84.38
2023-01-07T10:28:59.191Z,90.00
2023-01-07T10:29:59.286Z,90.00
2023-01-07T10:30:59.976Z,90.00
2023-01-07T10:32:00.350Z,95.62
2023-01-07T10:32:59.167Z,95.62
2023-01-07T10:33:59.116Z,95.62
2023-01-07T10:34:59.117Z,95.62
2023-01-07T10:35:59.988Z,78.75
2023-01-07T10:36:59.173Z,73.12
2023-01-07T10:37:59.074Z,61.88
2023-01-07T10:38:59.057Z,56.25
2023-01-07T10:39:59.045Z,61.88
2023-01-07T10:40:59.066Z,67.50
2023-01-07T10:41:59.183Z,73.12
2023-01-07T10:42:59.026Z,67.50
2023-01-07T10:43:59.822Z,73.12
2023-01-07T10:44:58.980Z,78.75
2023-01-07T10:45:59.126Z,84.38
2023-01-07T10:46:59.059Z,90.00
2023-01-07T10:47:58.933Z,90.00
2023-01-07T10:48:58.926Z,90.00
2023-01-07T10:49:58.908Z,90.00
2023-01-07T10:50:59.065Z,90.00
2023-01-07T10:51:58.906Z,90.00
2023-01-07T10:52:58.867Z,90.00
2023-01-07T10:53:58.844Z,90.00
2023-01-07T10:54:58.930Z,84.38
2023-01-07T10:55:58.934Z,90.00
2023-01-07T10:56:58.867Z,90.00
2023-01-07T10:57:58.836Z,90.00
2023-01-07T10:58:58.791Z,84.38
2023-01-07T10:59:58.782Z,78.75
2023-01-07T11:00:58.937Z,73.12
2023-01-07T11:01:59.028Z,73.12
2023-01-07T11:02:58.823Z,73.12
2023-01-07T11:03:58.790Z,73.12
2023-01-07T11:04:58.716Z,73.12
2023-01-07T11:05:59.495Z,73.12
2023-01-07T11:06:58.785Z,73.12
2023-01-07T11:07:58.703Z,67.50
2023-01-07T11:08:58.657Z,67.50
2023-01-07T11:09:58.943Z,67.50
2023-01-07T11:10:58.941Z,67.50
2023-01-07T11:11:58.635Z,61.88
2023-01-07T11:12:58.604Z,56.25
2023-01-07T11:13:58.633Z,56.25
2023-01-07T11:14:58.603Z,56.25
2023-01-07T11:15:58.655Z,61.88
2023-01-07T11:16:58.742Z,61.88
2023-01-07T11:17:58.792Z,56.25
2023-01-07T11:18:58.552Z,50.62
2023-01-07T11:19:58.759Z,50.62
2023-01-07T11:20:58.493Z,56.25
2023-01-07T11:21:58.823Z,56.25
2023-01-07T11:22:58.476Z,56.25
2023-01-07T11:23:58.475Z,61.88
2023-01-07T11:24:58.764Z,61.88
2023-01-07T11:25:58.425Z,67.50
2023-01-07T11:26:58.687Z,78.75
2023-01-07T11:27:58.407Z,78.75
2023-01-07T11:28:58.395Z,73.12
2023-01-07T11:29:58.378Z,73.12
2023-01-07T11:30:58.450Z,61.88
2023-01-07T11:31:59.051Z,61.88
2023-01-07T11:32:58.835Z,61.88
2023-01-07T11:34:02.244Z,61.88
2023-01-07T11:34:59.324Z,56.25
2023-01-07T11:35:58.303Z,50.62
2023-01-07T11:36:58.584Z,50.62
2023-01-07T11:37:58.267Z,50.62
2023-01-07T11:38:58.255Z,56.25
2023-01-07T11:39:58.254Z,61.88
2023-01-07T11:40:59.923Z,56.25
2023-01-07T11:41:58.760Z,56.25
2023-01-07T11:42:58.248Z,61.88
2023-01-07T11:43:58.201Z,61.88
2023-01-07T11:44:58.194Z,56.25
2023-01-07T11:46:19.086Z,50.62
2023-01-07T11:46:59.287Z,50.62
2023-01-07T11:47:58.435Z,50.62
2023-01-07T11:48:58.493Z,50.62
2023-01-07T11:49:58.162Z,50.62
2023-01-07T11:50:58.611Z,45.00
2023-01-07T11:51:58.122Z,45.00
2023-01-07T11:52:58.153Z,45.00
2023-01-07T11:53:58.053Z,45.00
2023-01-07T11:54:58.063Z,45.00
2023-01-07T11:55:58.072Z,33.75
2023-01-07T11:56:58.092Z,33.75
2023-01-07T11:58:28.913Z,33.75
2023-01-07T11:58:59.017Z,33.75
2023-01-07T11:59:57.984Z,28.12
2023-01-07T12:00:58.003Z,33.75
2023-01-07T12:01:58.049Z,33.75
2023-01-07T12:02:58.114Z,39.38
2023-01-07T12:03:58.721Z,39.38
2023-01-07T12:04:57.915Z,39.38
2023-01-07T12:05:57.908Z,45.00
2023-01-07T12:06:58.251Z,39.38
2023-01-07T12:07:57.870Z,39.38
2023-01-07T12:08:57.890Z,39.38
2023-01-07T12:09:57.847Z,45.00
2023-01-07T12:10:57.862Z,45.00
2023-01-07T12:11:57.907Z,39.38
2023-01-07T12:12:58.572Z,39.38
2023-01-07T12:14:19.401Z,45.00
2023-01-07T12:14:58.372Z,45.00
2023-01-07T12:15:57.789Z,50.62
2023-01-07T12:16:57.808Z,50.62
2023-01-07T12:17:57.974Z,50.62
2023-01-07T12:18:58.151Z,45.00
2023-01-07T12:19:57.712Z,39.38
2023-01-07T12:20:57.717Z,39.38
2023-01-07T12:21:57.947Z,39.38
2023-01-07T12:22:58.487Z,39.38
2023-01-07T12:23:57.995Z,39.38
2023-01-07T12:24:57.652Z,39.38
2023-01-07T12:25:58.592Z,45.00
2023-01-07T12:26:58.031Z,45.00
2023-01-07T12:27:58.111Z,45.00
2023-01-07T12:28:57.666Z,39.38
2023-01-07T12:29:57.624Z,39.38
2023-01-07T12:30:57.620Z,39.38
2023-01-07T12:31:57.601Z,39.38
2023-01-07T12:32:57.637Z,39.38
2023-01-07T12:33:58.211Z,39.38
2023-01-07T12:34:57.615Z,39.38
2023-01-07T12:35:57.507Z,33.75
2023-01-07T12:36:57.681Z,33.75
2023-01-07T12:37:57.519Z,33.75
2023-01-07T12:38:57.517Z,39.38
2023-01-07T12:39:57.465Z,33.75
2023-01-07T12:40:57.435Z,33.75
2023-01-07T12:41:57.542Z,33.75
2023-01-07T12:42:57.412Z,39.38
2023-01-07T12:43:58.103Z,39.38
2023-01-07T12:44:57.445Z,39.38
2023-01-07T12:45:57.433Z,39.38
2023-01-07T12:47:32.288Z,45.00
2023-01-07T12:47:58.349Z,50.62
2023-01-07T12:48:57.439Z,50.62
2023-01-07T12:49:57.485Z,45.00
2023-01-07T12:50:57.366Z,45.00
2023-01-07T12:51:57.319Z,50.62
2023-01-07T12:52:57.518Z,50.62
2023-01-07T12:53:57.375Z,50.62
2023-01-07T12:54:57.258Z,61.88
2023-01-07T12:55:57.235Z,61.88
2023-01-07T12:56:57.351Z,61.88
2023-01-07T12:57:57.208Z,61.88
2023-01-07T12:58:57.422Z,67.50
2023-01-07T12:59:57.189Z,67.50
2023-01-07T13:00:57.229Z,67.50
2023-01-07T13:01:57.314Z,67.50
2023-01-07T13:02:57.255Z,73.12
2023-01-07T13:03:57.428Z,67.50
2023-01-07T13:04:57.472Z,61.88
2023-01-07T13:05:57.139Z,67.50
2023-01-07T13:06:57.159Z,67.50